Time;durP1;ratioP1;P1;durP2;ratioP2;P2;SDS_P1;SDS_P2;PMS_P1;PMS_P2;Temp;Humidity;BMP_temperature;BMP_pressure;BME280_temperature;BME280_humidity;BME280_pressure;Samples;Min_cycle;Max_cycle;Signal;HPM_P1;HPM_P2
2022/08/06 00:03:26;;;;;;;0.10;0.10;;;;;;;12.16;100.00;102274.19;10431672;28;20279;-73
2022/08/06 00:08:27;;;;;;;0.00;0.00;;;;;;;12.19;100.00;102286.44;10412633;28;20025;-72
2022/08/06 00:13:27;;;;;;;0.00;0.00;;;;;;;12.25;100.00;102288.56;10431224;28;20021;-72
2022/08/06 00:18:27;;;;;;;0.10;0.10;;;;;;;12.34;100.00;102297.59;10436192;28;20373;-72
2022/08/06 00:23:28;;;;;;;0.10;0.10;;;;;;;12.38;100.00;102299.84;10448855;28;20103;-72
2022/08/06 00:28:28;;;;;;;0.10;0.10;;;;;;;12.39;100.00;102300.69;10427779;28;20033;-73
2022/08/06 00:33:29;;;;;;;0.10;0.10;;;;;;;12.33;100.00;102299.41;10417800;28;20079;-72
2022/08/06 00:38:29;;;;;;;0.20;0.20;;;;;;;12.28;100.00;102309.66;10424744;28;20024;-71
2022/08/06 00:43:30;;;;;;;0.07;0.07;;;;;;;12.22;100.00;102316.38;10424904;28;20402;-73
2022/08/06 00:48:30;;;;;;;0.00;0.00;;;;;;;12.13;100.00;102316.31;10419030;28;20061;-72
2022/08/06 00:53:30;;;;;;;0.10;0.10;;;;;;;12.06;100.00;102321.34;10445766;28;20074;-73
2022/08/06 00:58:31;;;;;;;0.03;0.03;;;;;;;11.98;100.00;102330.03;10432825;28;20260;-73
2022/08/06 01:03:31;;;;;;;0.10;0.10;;;;;;;11.92;100.00;102335.03;10438302;28;20028;-73
2022/08/06 01:08:32;;;;;;;0.00;0.00;;;;;;;11.89;100.00;102346.00;10413160;28;20022;-73
2022/08/06 01:13:32;;;;;;;0.00;0.00;;;;;;;11.86;100.00;102346.25;10413686;28;20076;-73
2022/08/06 01:18:44;;;;;;;0.10;0.10;;;;;;;11.83;100.00;102351.81;10429194;28;21282;-73
2022/08/06 01:24:10;;;;;;;0.10;0.10;;;;;;;11.77;100.00;102354.03;10415493;28;20032;-73
2022/08/06 01:29:23;;;;;;;0.10;0.10;;;;;;;11.73;100.00;102351.75;10426691;28;20025;-73
2022/08/06 01:34:30;;;;;;;0.00;0.00;;;;;;;11.70;100.00;102354.69;10409918;28;20018;-73
2022/08/06 01:39:33;;;;;;;0.00;0.00;;;;;;;11.69;100.00;102358.31;10437701;28;20036;-72
2022/08/06 01:44:37;;;;;;;0.10;0.10;;;;;;;11.62;100.00;102360.66;10428720;28;20464;-72
2022/08/06 01:49:40;;;;;;;0.10;0.10;;;;;;;11.49;100.00;102376.00;10435300;28;20052;-72
2022/08/06 01:54:45;;;;;;;0.10;0.10;;;;;;;11.38;100.00;102376.06;10433207;28;20263;-72
2022/08/06 01:59:50;;;;;;;0.10;0.10;;;;;;;11.28;100.00;102376.78;10412523;28;20021;-72
2022/08/06 02:04:54;;;;;;;0.10;0.10;;;;;;;11.17;100.00;102374.19;10430498;28;20440;-72
2022/08/06 02:09:57;;;;;;;0.10;0.10;;;;;;;11.09;100.00;102387.28;10428906;28;20469;-72
2022/08/06 02:15:13;;;;;;;0.10;0.10;;;;;;;10.99;100.00;102379.16;10416881;28;20032;-72
2022/08/06 02:20:16;;;;;;;0.00;0.00;;;;;;;10.90;100.00;102381.72;10424900;28;20540;-72
2022/08/06 02:25:18;;;;;;;0.00;0.00;;;;;;;10.80;100.00;102384.28;10416274;28;20071;-73
2022/08/06 02:30:18;;;;;;;0.10;0.10;;;;;;;10.71;100.00;102388.53;10432670;28;20052;-73
2022/08/06 02:35:19;;;;;;;0.10;0.10;;;;;;;10.59;100.00;102387.69;10427301;28;20093;-72
2022/08/06 02:40:25;;;;;;;0.08;0.08;;;;;;;10.50;100.00;102393.75;10437952;28;20151;-72
2022/08/06 02:45:38;;;;;;;0.10;0.10;;;;;;;10.39;100.00;102391.91;10425485;28;20021;-72
2022/08/06 02:50:43;;;;;;;0.10;0.10;;;;;;;10.41;100.00;102383.78;10429957;28;20013;-72
2022/08/06 02:55:48;;;;;;;0.00;0.00;;;;;;;10.52;100.00;102397.13;10418182;28;20024;-72
2022/08/06 03:00:50;;;;;;;;;;;;;;;10.55;100.00;102402.22;10439622;28;20471;-72
2022/08/06 03:05:54;;;;;;;0.10;0.10;;;;;;;10.55;100.00;102407.53;10427902;28;19920;-72
2022/08/06 03:10:56;;;;;;;0.10;0.10;;;;;;;10.52;100.00;102397.13;10417329;28;20507;-71
2022/08/06 03:15:59;;;;;;;0.10;0.10;;;;;;;10.51;100.00;102400.78;10427508;28;20278;-71
2022/08/06 03:21:01;;;;;;;0.00;0.00;;;;;;;10.51;100.00;102406.09;10437961;28;20025;-71
2022/08/06 03:26:02;;;;;;;0.10;0.10;;;;;;;10.51;100.00;102408.75;10428288;28;20492;-73
2022/08/06 03:31:03;;;;;;;0.10;0.10;;;;;;;10.47;100.00;102417.09;10416364;28;20482;-73
2022/08/06 03:36:05;;;;;;;0.10;0.10;;;;;;;10.37;100.00;102415.16;10424411;28;20021;-73
2022/08/06 03:41:07;;;;;;;0.00;0.00;;;;;;;10.33;100.00;102421.69;10416695;28;20030;-73
2022/08/06 03:46:08;;;;;;;0.10;0.10;;;;;;;10.32;100.00;102424.47;10429253;28;20036;-73
2022/08/06 03:51:15;;;;;;;0.10;0.10;;;;;;;10.41;100.00;102427.28;10446964;28;20036;-71
2022/08/06 03:56:22;;;;;;;0.00;0.00;;;;;;;10.92;100.00;102430.44;10426231;28;20112;-73
2022/08/06 04:01:26;;;;;;;0.00;0.00;;;;;;;11.75;100.00;102435.22;10420029;28;20469;-73
2022/08/06 04:06:28;;;;;;;0.10;0.10;;;;;;;12.66;100.00;102445.28;10431340;28;20686;-73
2022/08/06 04:11:29;;;;;;;0.10;0.10;;;;;;;13.66;100.00;102441.78;10423222;28;20035;-73
2022/08/06 04:16:31;;;;;;;0.10;0.10;;;;;;;14.74;100.00;102437.97;10435054;28;20107;-73
2022/08/06 04:21:31;;;;;;;0.10;0.10;;;;;;;15.82;100.00;102447.94;10431231;28;20013;-73
2022/08/06 04:26:33;;;;;;;0.10;0.10;;;;;;;16.83;100.00;102447.47;10430195;28;20529;-72
2022/08/06 04:31:34;;;;;;;0.10;0.10;;;;;;;17.51;100.00;102454.63;10446968;28;20055;-73
2022/08/06 04:36:34;;;;;;;0.00;0.00;;;;;;;17.81;100.00;102463.13;10427514;28;20253;-73
2022/08/06 04:41:35;;;;;;;0.00;0.00;;;;;;;18.92;99.47;102466.00;10444019;28;20171;-73
2022/08/06 04:46:37;;;;;;;0.08;0.08;;;;;;;19.95;91.18;102475.75;10421224;28;20393;-73
2022/08/06 04:51:37;;;;;;;0.00;0.00;;;;;;;20.77;87.59;102478.56;10438928;28;20056;-73
2022/08/06 04:56:38;;;;;;;0.00;0.00;;;;;;;21.06;86.53;102485.00;10415851;28;20017;-73
2022/08/06 05:01:39;;;;;;;0.00;0.00;;;;;;;19.32;91.69;102484.94;10427954;28;20394;-72
2022/08/06 05:07:05;;;;;;;0.10;0.10;;;;;;;17.87;98.74;102494.78;10407202;28;20025;-72
2022/08/06 05:12:19;;;;;;;0.00;0.00;;;;;;;16.65;100.00;102501.34;10419017;28;20094;-72
2022/08/06 05:17:23;;;;;;;0.10;0.10;;;;;;;15.94;100.00;102507.69;10414504;28;20013;-72
2022/08/06 05:22:27;;;;;;;0.00;0.00;;;;;;;15.44;100.00;102518.00;10428462;28;20023;-72
2022/08/06 05:27:27;;;;;;;0.10;0.10;;;;;;;15.02;100.00;102521.19;10440176;28;20028;-72
2022/08/06 05:32:28;;;;;;;0.10;0.10;;;;;;;14.68;100.00;102535.09;10443608;28;20032;-73
2022/08/06 05:37:28;;;;;;;0.10;0.10;;;;;;;14.46;100.00;102529.06;10442064;28;20021;-73
2022/08/06 05:42:29;;;;;;;0.10;0.10;;;;;;;15.75;100.00;102534.69;10419420;28;20027;-72
2022/08/06 05:47:34;;;;;;;0.10;0.10;;;;;;;18.90;100.00;102543.63;10433965;28;20053;-73
2022/08/06 05:52:54;;;;;;;0.10;0.10;;;;;;;20.91;90.40;102546.44;10420348;28;20118;-72
2022/08/06 05:57:59;;;;;;;0.05;0.05;;;;;;;21.23;88.28;102548.78;10436517;28;20017;-73
2022/08/06 06:03:04;;;;;;;0.10;0.10;;;;;;;23.31;81.22;102557.84;10447731;28;20029;-73
2022/08/06 06:08:08;;;;;;;0.10;0.10;;;;;;;24.89;71.87;102564.59;10456137;28;20070;-73
2022/08/06 06:13:08;;;;;;;0.10;0.10;;;;;;;26.13;66.99;102565.34;10421673;28;20068;-73
2022/08/06 06:18:24;;;;;;;0.10;0.10;;;;;;;25.99;63.34;102572.78;10406559;28;20057;-73
2022/08/06 06:23:39;;;;;;;0.10;0.10;;;;;;;23.35;71.57;102573.53;10435413;28;20029;-73
2022/08/06 06:28:58;;;;;;;0.05;0.05;;;;;;;21.38;80.92;102584.03;10416544;28;20384;-73
2022/08/06 06:34:08;;;;;;;0.10;0.10;;;;;;;22.58;82.54;102583.47;10432438;28;20032;-72
2022/08/06 06:39:26;;;;;;;0.10;0.10;;;;;;;23.32;74.06;102589.41;10438038;28;20025;-72
2022/08/06 06:44:36;;;;;;;0.10;0.10;;;;;;;23.01;72.60;102596.16;10417936;28;20025;-72
2022/08/06 06:49:48;;;;;;;0.10;0.10;;;;;;;21.41;76.68;102599.94;10418179;28;20027;-72
2022/08/06 06:54:57;;;;;;;0.10;0.10;;;;;;;19.79;88.45;102606.50;10411132;28;20354;-72
2022/08/06 07:00:01;;;;;;;0.10;0.10;;;;;;;18.80;95.05;102605.09;10420560;28;20036;-72
2022/08/06 07:05:04;;;;;;;0.10;0.10;;;;;;;18.14;100.00;102597.94;10440540;28;20090;-72
2022/08/06 07:10:07;;;;;;;0.00;0.00;;;;;;;17.75;100.00;102612.00;10428609;28;20025;-72
2022/08/06 07:15:09;;;;;;;0.00;0.00;;;;;;;17.64;100.00;102610.41;10418531;28;20476;-72
2022/08/06 07:20:12;;;;;;;0.00;0.00;;;;;;;17.80;100.00;102615.91;10439589;28;20056;-72
2022/08/06 07:25:14;;;;;;;0.00;0.00;;;;;;;18.30;100.00;102623.09;10422245;28;20496;-72
2022/08/06 07:30:17;;;;;;;0.10;0.10;;;;;;;20.42;97.86;102630.78;10427471;28;20036;-72
2022/08/06 07:35:19;;;;;;;0.00;0.00;;;;;;;23.05;79.18;102630.88;10416110;28;20151;-72
2022/08/06 07:40:35;;;;;;;0.10;0.10;;;;;;;24.54;72.02;102635.66;10411012;28;20025;-73
2022/08/06 07:45:35;;;;;;;0.00;0.00;;;;;;;23.51;74.57;102640.34;10437564;28;20519;-73
2022/08/06 07:50:37;;;;;;;0.08;0.08;;;;;;;22.99;73.42;102631.66;10452014;28;20021;-72
2022/08/06 07:55:38;;;;;;;0.00;0.00;;;;;;;23.95;72.55;102648.09;10451638;28;20083;-73
2022/08/06 08:00:39;;;;;;;0.10;0.10;;;;;;;25.35;68.17;102639.19;10452380;28;20091;-73
2022/08/06 08:10:59;;;;;;;0.10;0.10;;;;;;;26.88;64.22;102644.66;10452884;28;20029;-73
2022/08/06 08:16:00;;;;;;;0.10;0.10;;;;;;;27.24;59.55;102645.78;10434652;28;20017;-73
2022/08/06 08:21:02;;;;;;;0.10;0.10;;;;;;;25.76;63.92;102644.28;10451849;28;20033;-73
2022/08/06 08:26:02;;;;;;;0.00;0.00;;;;;;;26.07;61.36;102639.97;10451715;28;20377;-73
2022/08/06 08:31:05;;;;;;;0.05;0.05;;;;;;;25.85;57.25;102644.91;10451397;28;20024;-73
2022/08/06 08:36:07;;;;;;;0.10;0.10;;;;;;;24.59;59.45;102646.78;10451657;28;20104;-73
2022/08/06 08:41:21;;;;;;;0.10;0.10;;;;;;;22.78;67.28;102637.94;10451858;28;20462;-73
2022/08/06 08:46:22;;;;;;;0.10;0.10;;;;;;;22.13;71.38;102647.09;10422274;28;20433;-73
2022/08/06 08:51:24;;;;;;;0.00;0.00;;;;;;;21.21;70.51;102644.84;10451082;28;20049;-72
2022/08/06 08:56:25;;;;;;;0.00;0.00;;;;;;;21.19;72.98;102650.44;10450582;28;20029;-73
2022/08/06 09:01:26;;;;;;;0.08;0.08;;;;;;;23.15;68.46;102654.13;10450647;28;20415;-73
2022/08/06 09:06:27;;;;;;;0.00;0.00;;;;;;;23.31;65.86;102651.09;10450277;28;20048;-73
2022/08/06 09:11:27;;;;;;;0.10;0.10;;;;;;;22.21;69.42;102657.03;10449919;28;20027;-73
2022/08/06 09:16:29;;;;;;;0.00;0.00;;;;;;;22.87;71.19;102656.84;10437482;28;20568;-73
2022/08/06 09:21:30;;;;;;;0.00;0.00;;;;;;;23.53;63.14;102661.88;10458689;28;20542;-73
2022/08/06 09:26:33;;;;;;;0.10;0.10;;;;;;;23.19;64.78;102663.59;10458887;28;20688;-73
2022/08/06 09:31:35;;;;;;;0.00;0.00;;;;;;;23.11;63.73;102664.56;10458863;28;20025;-72
2022/08/06 09:36:43;;;;;;;0.00;0.00;;;;;;;23.81;67.19;102670.00;10458098;28;20527;-73
2022/08/06 09:41:48;;;;;;;0.00;0.00;;;;;;;22.91;66.37;102677.97;10453640;28;20033;-72
2022/08/06 09:46:49;;;;;;;0.10;0.10;;;;;;;22.21;66.00;102684.19;10423244;28;20038;-73
2022/08/06 09:51:50;;;;;;;0.00;0.00;;;;;;;23.21;62.66;102688.66;10416364;28;20029;-73
2022/08/06 09:57:00;;;;;;;0.00;0.00;;;;;;;23.80;51.85;102706.44;10416008;28;20527;-73
2022/08/06 10:02:10;;;;;;;0.00;0.00;;;;;;;23.40;53.73;102704.28;10416092;28;20043;-73
2022/08/06 10:07:11;;;;;;;0.03;0.03;;;;;;;22.82;58.14;102703.59;10447218;28;20054;-73
2022/08/06 10:12:22;;;;;;;0.00;0.00;;;;;;;22.37;60.14;102697.53;10415459;28;20369;-73
2022/08/06 10:17:25;;;;;;;0.00;0.00;;;;;;;21.77;61.54;102701.34;10441642;28;20104;-73
2022/08/06 10:22:25;;;;;;;0.08;0.08;;;;;;;21.65;65.30;102693.69;10455780;28;20017;-73
2022/08/06 10:27:30;;;;;;;0.00;0.00;;;;;;;22.41;65.95;102703.41;10455688;28;20108;-77
2022/08/06 10:32:40;;;;;;;0.00;0.00;;;;;;;22.94;61.06;102691.16;10456442;28;20048;-73
2022/08/06 10:37:43;;;;;;;0.05;0.05;;;;;;;23.58;58.55;102695.59;10455709;28;20484;-73
2022/08/06 10:42:44;;;;;;;0.00;0.00;;;;;;;23.56;56.77;102691.41;10446275;28;20112;-73
2022/08/06 10:47:46;;;;;;;0.03;0.03;;;;;;;22.72;58.26;102694.91;10446979;28;20128;-73
2022/08/06 10:52:48;;;;;;;0.00;0.00;;;;;;;22.60;57.10;102690.03;10455281;28;20021;-73
2022/08/06 10:57:49;;;;;;;0.00;0.00;;;;;;;21.75;57.84;102690.66;10455018;28;20055;-73
2022/08/06 11:03:23;;;;;;;0.05;0.05;;;;;;;21.33;61.63;102683.16;10454827;28;20051;-73
2022/08/06 11:08:38;;;;;;;0.00;0.00;;;;;;;21.86;61.24;102682.06;10432002;28;20053;-73
2022/08/06 11:13:58;;;;;;;0.00;0.00;;;;;;;21.11;57.57;102691.16;10422166;28;20361;-73
2022/08/06 11:19:10;;;;;;;0.00;0.00;;;;;;;21.63;59.97;102684.03;10447021;28;20021;-73
2022/08/06 11:24:13;;;;;;;0.00;0.00;;;;;;;21.98;55.14;102687.84;10437409;28;20032;-72
2022/08/06 11:29:17;;;;;;;0.10;0.10;;;;;;;22.35;58.85;102696.88;10426207;28;20037;-72
2022/08/06 11:34:19;;;;;;;0.00;0.00;;;;;;;21.81;56.81;102676.34;10420823;28;20117;-73
2022/08/06 11:39:21;;;;;;;0.00;0.00;;;;;;;21.67;52.64;102678.06;10435754;28;20017;-72
2022/08/06 11:44:30;;;;;;;0.00;0.00;;;;;;;21.83;52.79;102677.00;10430297;28;20465;-73
2022/08/06 11:49:42;;;;;;;0.00;0.00;;;;;;;21.46;54.25;102683.38;10427293;28;20370;-73
2022/08/06 11:54:48;;;;;;;0.00;0.00;;;;;;;21.77;53.73;102664.22;10435316;28;20021;-73
2022/08/06 11:59:54;;;;;;;0.00;0.00;;;;;;;21.76;54.36;102675.22;10440301;28;20030;-72
2022/08/06 12:04:55;;;;;;;0.00;0.00;;;;;;;21.66;55.46;102676.38;10422394;28;20477;-72
2022/08/06 12:10:07;;;;;;;0.00;0.00;;;;;;;21.96;55.25;102672.78;10428082;28;20021;-72
2022/08/06 12:15:19;;;;;;;0.00;0.00;;;;;;;22.09;52.82;102673.78;10420472;28;20104;-73
2022/08/06 12:20:39;;;;;;;0.03;0.03;;;;;;;21.77;49.41;102677.78;10421874;28;20087;-73
2022/08/06 12:25:45;;;;;;;0.00;0.00;;;;;;;21.79;51.92;102678.44;10426641;28;20029;-73
2022/08/06 12:30:49;;;;;;;0.05;0.05;;;;;;;21.67;50.55;102664.50;10419941;28;20415;-72
2022/08/06 12:35:52;;;;;;;0.05;0.05;;;;;;;21.72;51.82;102679.38;10428297;28;20033;-73
2022/08/06 12:40:57;;;;;;;0.00;0.00;;;;;;;21.67;52.25;102679.91;10427328;28;20029;-72
2022/08/06 12:45:59;;;;;;;0.00;0.00;;;;;;;21.74;53.90;102680.03;10426874;28;20151;-73
2022/08/06 12:51:09;;;;;;;0.00;0.00;;;;;;;21.80;54.24;102681.97;10430580;28;20275;-73
2022/08/06 12:56:11;;;;;;;0.00;0.00;;;;;;;21.80;53.87;102679.25;10440822;28;20031;-73
2022/08/06 13:01:18;;;;;;;0.10;0.10;;;;;;;21.62;54.24;102676.94;10436527;28;20032;-73
2022/08/06 13:06:21;;;;;;;0.10;0.10;;;;;;;21.83;55.25;102684.31;10422924;28;20025;-73
2022/08/06 13:11:32;;;;;;;0.05;0.05;;;;;;;22.03;54.71;102679.97;10431801;28;20056;-72
2022/08/06 13:16:41;;;;;;;0.10;0.10;;;;;;;22.21;54.98;102678.75;10427684;28;20025;-73
2022/08/06 13:21:44;;;;;;;0.00;0.00;;;;;;;21.70;54.67;102679.56;10429931;28;20111;-72
2022/08/06 13:26:50;;;;;;;0.00;0.00;;;;;;;21.75;56.44;102676.28;10439843;28;20108;-73
2022/08/06 13:31:59;;;;;;;0.00;0.00;;;;;;;21.73;56.02;102672.91;10426642;28;20028;-73
2022/08/06 13:37:00;;;;;;;0.00;0.00;;;;;;;21.63;58.73;102671.31;10436265;28;20512;-72
2022/08/06 13:42:11;;;;;;;0.00;0.00;;;;;;;21.39;54.07;102674.31;10439253;28;20025;-72
2022/08/06 13:47:25;;;;;;;0.00;0.00;;;;;;;21.35;56.75;102673.84;10427607;28;20025;-72
2022/08/06 13:52:25;;;;;;;0.00;0.00;;;;;;;21.34;54.69;102668.59;10411227;28;20358;-72
2022/08/06 13:57:26;;;;;;;0.00;0.00;;;;;;;21.31;58.29;102666.25;10432998;28;20008;-72
2022/08/06 14:02:26;;;;;;;0.00;0.00;;;;;;;21.22;53.89;102676.31;10431581;28;20025;-72
2022/08/06 14:07:27;;;;;;;0.00;0.00;;;;;;;21.37;56.62;102668.25;10433190;28;20509;-73
2022/08/06 14:12:27;;;;;;;0.00;0.00;;;;;;;21.50;52.62;102667.56;10430544;28;20069;-73
2022/08/06 14:17:28;;;;;;;0.10;0.10;;;;;;;21.52;52.46;102671.78;10425875;28;20435;-73
2022/08/06 14:22:28;;;;;;;0.10;0.10;;;;;;;21.42;55.52;102674.78;10418439;28;20028;-73
2022/08/06 14:27:28;;;;;;;0.00;0.00;;;;;;;21.40;54.57;102671.41;10438787;28;20431;-73
2022/08/06 14:32:29;;;;;;;0.00;0.00;;;;;;;21.21;54.61;102677.38;10436169;28;20021;-73
2022/08/06 14:37:29;;;;;;;0.00;0.00;;;;;;;21.10;57.21;102684.06;10421152;28;20020;-73
2022/08/06 14:47:49;;;;;;;0.10;0.10;;;;;;;20.97;57.59;102673.88;10432812;28;20024;-72
2022/08/06 14:52:49;;;;;;;0.00;0.00;;;;;;;21.11;56.99;102671.34;10441841;28;20108;-72
2022/08/06 14:57:50;;;;;;;0.00;0.00;;;;;;;21.06;57.35;102669.22;10443289;28;20377;-73
2022/08/06 15:02:51;;;;;;;0.00;0.00;;;;;;;20.65;55.19;102664.13;10434381;28;20029;-72
2022/08/06 15:07:51;;;;;;;0.10;0.10;;;;;;;20.53;57.58;102666.41;10425730;28;20044;-73
2022/08/06 15:12:52;;;;;;;0.00;0.00;;;;;;;20.64;57.76;102661.63;10440581;28;20049;-73
2022/08/06 15:17:53;;;;;;;0.00;0.00;;;;;;;20.82;58.98;102658.59;10428218;28;20010;-73
2022/08/06 15:22:53;;;;;;;0.00;0.00;;;;;;;20.62;55.66;102664.50;10430986;28;20024;-73
2022/08/06 15:27:54;;;;;;;0.00;0.00;;;;;;;20.57;59.38;102658.81;10428484;28;21029;-72
2022/08/06 15:32:54;;;;;;;0.07;0.07;;;;;;;20.51;59.59;102662.19;10433538;28;20065;-72
2022/08/06 15:37:55;;;;;;;0.00;0.00;;;;;;;20.42;58.03;102657.84;10421857;28;20090;-73
2022/08/06 15:42:55;;;;;;;0.00;0.00;;;;;;;20.28;57.09;102663.03;10415701;28;20064;-73
2022/08/06 15:47:58;;;;;;;0.00;0.00;;;;;;;20.21;60.26;102663.91;10428623;28;20393;-73
2022/08/06 15:52:58;;;;;;;0.00;0.00;;;;;;;20.06;61.40;102658.41;10417945;28;20393;-73
2022/08/06 15:57:59;;;;;;;0.10;0.10;;;;;;;19.89;60.56;102668.47;10442983;28;20025;-72
2022/08/06 16:02:59;;;;;;;0.00;0.00;;;;;;;19.85;61.54;102669.84;10412562;28;20264;-73
2022/08/06 16:07:59;;;;;;;0.00;0.00;;;;;;;19.75;62.44;102669.22;10442537;28;20287;-72
2022/08/06 16:13:00;;;;;;;0.00;0.00;;;;;;;19.64;61.54;102662.31;10425728;28;20033;-72
2022/08/06 16:18:00;;;;;;;0.00;0.00;;;;;;;19.60;64.20;102669.06;10420122;28;20059;-71
2022/08/06 16:23:01;;;;;;;0.10;0.10;;;;;;;19.61;64.83;102657.25;10427820;28;20263;-72
2022/08/06 16:28:03;;;;;;;0.08;0.08;;;;;;;19.62;64.61;102662.47;10415309;28;20036;-72
2022/08/06 16:33:04;;;;;;;0.05;0.05;;;;;;;19.56;65.76;102656.94;10417897;28;20029;-72
2022/08/06 16:38:05;;;;;;;0.17;0.17;;;;;;;19.44;66.75;102665.41;10422303;28;20033;-72
2022/08/06 16:43:05;;;;;;;0.00;0.00;;;;;;;19.32;67.59;102655.16;10429633;28;20033;-72
2022/08/06 16:48:05;;;;;;;0.10;0.10;;;;;;;19.18;68.91;102659.38;10423977;28;20045;-72
2022/08/06 16:53:07;;;;;;;0.00;0.00;;;;;;;19.03;69.99;102661.09;10426129;28;20092;-72
2022/08/06 16:58:07;;;;;;;0.00;0.00;;;;;;;18.83;71.75;102657.91;10439569;28;20021;-72
2022/08/06 17:03:07;;;;;;;0.10;0.10;;;;;;;18.71;72.08;102660.06;10424563;28;20510;-73
2022/08/06 17:08:08;;;;;;;0.05;0.05;;;;;;;18.57;71.79;102655.34;10440471;28;20063;-73
2022/08/06 17:13:08;;;;;;;0.00;0.00;;;;;;;18.44;70.74;102658.50;10423771;28;20025;-73
2022/08/06 17:18:08;;;;;;;0.10;0.10;;;;;;;18.27;70.77;102654.97;10417266;28;20268;-73
2022/08/06 17:23:09;;;;;;;0.00;0.00;;;;;;;18.16;74.81;102664.22;10445969;28;20021;-73
2022/08/06 17:28:09;;;;;;;0.10;0.10;;;;;;;18.05;75.72;102656.41;10420924;28;20104;-72
2022/08/06 17:33:11;;;;;;;0.10;0.10;;;;;;;17.96;75.88;102662.78;10426843;28;20021;-72
2022/08/06 17:38:11;;;;;;;0.10;0.10;;;;;;;17.84;76.21;102655.00;10444232;28;20354;-73
2022/08/06 17:43:12;;;;;;;0.10;0.10;;;;;;;17.72;75.71;102661.66;10417394;28;20018;-72
2022/08/06 17:48:12;;;;;;;0.10;0.10;;;;;;;17.60;77.96;102655.72;10412343;28;20057;-72
2022/08/06 17:53:12;;;;;;;0.10;0.10;;;;;;;17.53;79.04;102657.34;10409668;28;20315;-72
2022/08/06 17:58:13;;;;;;;0.10;0.10;;;;;;;17.48;78.71;102654.28;10415131;28;20144;-72
2022/08/06 18:03:13;;;;;;;0.00;0.00;;;;;;;17.40;78.46;102648.88;10446995;28;20040;-72
2022/08/06 18:08:14;;;;;;;0.00;0.00;;;;;;;17.33;79.14;102661.28;10415608;28;20025;-72
2022/08/06 18:13:17;;;;;;;0.10;0.10;;;;;;;17.18;77.91;102669.94;10423701;28;20094;-72
2022/08/06 18:18:19;;;;;;;0.10;0.10;;;;;;;17.05;79.40;102674.91;10414983;28;20026;-72
2022/08/06 18:23:20;;;;;;;0.10;0.10;;;;;;;16.92;80.46;102675.28;10415347;28;20040;-72
2022/08/06 18:28:20;;;;;;;0.10;0.10;;;;;;;16.77;82.32;102678.72;10414839;28;20515;-72
2022/08/06 18:33:20;;;;;;;0.10;0.10;;;;;;;16.64;83.23;102666.47;10414780;28;20108;-72
2022/08/06 18:38:21;;;;;;;0.10;0.10;;;;;;;16.49;85.19;102668.84;10414608;28;20075;-72
2022/08/06 18:43:21;;;;;;;0.10;0.10;;;;;;;16.34;85.37;102669.50;10424152;28;20037;-72
2022/08/06 18:48:22;;;;;;;0.10;0.10;;;;;;;16.14;87.36;102669.63;10455147;28;20452;-72
2022/08/06 18:53:23;;;;;;;0.10;0.10;;;;;;;16.02;87.76;102673.53;10455590;28;20036;-72
2022/08/06 18:58:24;;;;;;;0.10;0.10;;;;;;;15.83;89.43;102672.66;10455386;28;20017;-72
2022/08/06 19:03:24;;;;;;;0.10;0.10;;;;;;;15.67;90.90;102684.97;10454951;28;20033;-72
2022/08/06 19:08:33;;;;;;;0.10;0.10;;;;;;;15.39;91.69;102664.31;10502298;22;20553;-92
2022/08/06 19:13:44;;;;;;;0.10;0.10;;;;;;;15.27;92.36;102676.22;10465603;28;20039;-90
2022/08/06 19:18:45;;;;;;;0.10;0.10;;;;;;;15.14;94.00;102687.25;10472931;28;20025;-91
2022/08/06 19:23:46;;;;;;;0.10;0.10;;;;;;;14.85;95.59;102675.72;10468611;28;20075;-90
2022/08/06 19:28:49;;;;;;;0.10;0.10;;;;;;;14.69;98.08;102674.44;10465063;28;20039;-90
2022/08/06 19:33:53;;;;;;;0.10;0.10;;;;;;;14.70;99.40;102694.06;10471139;28;20044;-91
2022/08/06 19:38:53;;;;;;;;;;;;;;;14.64;100.00;102700.84;10467243;28;20027;-92
2022/08/06 19:44:00;;;;;;;0.10;0.10;;;;;;;14.51;100.00;102705.56;10471250;28;20026;-93
2022/08/06 19:49:04;;;;;;;0.10;0.10;;;;;;;14.27;100.00;102687.22;10509461;28;20051;-92
2022/08/06 19:54:05;;;;;;;0.10;0.10;;;;;;;14.10;100.00;102683.34;10507207;28;20028;-92
2022/08/06 19:59:06;;;;;;;0.00;0.00;;;;;;;13.98;100.00;102687.97;10511801;28;20081;-91
2022/08/06 20:04:10;;;;;;;0.10;0.10;;;;;;;13.73;100.00;102692.00;10522607;28;20056;-91
2022/08/06 20:09:10;;;;;;;0.10;0.10;;;;;;;13.62;100.00;102707.28;10509002;28;20040;-91
2022/08/06 20:14:11;;;;;;;0.10;0.10;;;;;;;13.45;100.00;102706.91;10491567;28;20039;-91
2022/08/06 20:19:11;;;;;;;0.10;0.10;;;;;;;13.37;100.00;102712.06;10519068;28;20561;-91
2022/08/06 20:24:22;;;;;;;0.10;0.10;;;;;;;13.17;100.00;102705.72;10509266;28;20109;-89
2022/08/06 20:29:23;;;;;;;0.10;0.10;;;;;;;13.09;100.00;102709.06;10512968;28;20040;-91
2022/08/06 20:34:30;;;;;;;0.10;0.10;;;;;;;13.00;100.00;102711.63;10509669;28;20028;-89
2022/08/06 20:39:30;;;;;;;0.10;0.10;;;;;;;13.02;100.00;102715.88;10506232;28;20028;-90
2022/08/06 20:44:39;;;;;;;0.08;0.08;;;;;;;12.93;100.00;102702.44;10486596;28;20031;-91
2022/08/06 20:49:39;;;;;;;0.10;0.10;;;;;;;12.87;100.00;102706.47;10461597;28;20033;-92
2022/08/06 20:54:43;;;;;;;0.10;0.10;;;;;;;12.77;100.00;102709.09;10467242;28;20079;-92
2022/08/06 20:59:43;;;;;;;0.10;0.10;;;;;;;12.58;100.00;102692.84;10467453;28;20068;-91
2022/08/06 21:04:44;;;;;;;0.10;0.10;;;;;;;12.42;100.00;102698.59;10473352;28;20029;-91
2022/08/06 21:09:45;;;;;;;0.10;0.10;;;;;;;12.39;100.00;102721.09;10471605;28;20267;-91
2022/08/06 21:14:45;;;;;;;0.10;0.10;;;;;;;11.99;100.00;102710.94;10479624;28;20306;-91
2022/08/06 21:19:46;;;;;;;0.10;0.10;;;;;;;11.60;100.00;102714.91;10472339;28;20166;-91
2022/08/06 21:24:49;;;;;;;0.10;0.10;;;;;;;11.20;100.00;102707.34;10471101;28;20114;-91
2022/08/06 21:29:50;;;;;;;0.10;0.10;;;;;;;11.04;100.00;102722.78;10469680;28;20128;-90
2022/08/06 21:34:50;;;;;;;0.10;0.10;;;;;;;10.93;100.00;102720.06;10476932;22;20538;-74
2022/08/06 21:39:54;;;;;;;0.10;0.10;;;;;;;10.81;100.00;102725.34;10455681;28;20028;-74
2022/08/06 21:44:54;;;;;;;0.10;0.10;;;;;;;10.67;100.00;102728.19;10469471;28;20274;-74
2022/08/06 21:49:55;;;;;;;0.10;0.10;;;;;;;10.50;100.00;102720.59;10496997;28;20032;-74
2022/08/06 21:54:55;;;;;;;0.00;0.00;;;;;;;10.43;100.00;102734.34;10497197;28;20019;-74
2022/08/06 21:59:55;;;;;;;0.10;0.10;;;;;;;10.35;100.00;102731.41;10494977;28;20059;-74
2022/08/06 22:04:56;;;;;;;0.10;0.10;;;;;;;10.31;100.00;102729.09;10496117;28;20279;-74
2022/08/06 22:09:56;;;;;;;0.10;0.10;;;;;;;10.29;100.00;102726.50;10495940;28;20102;-74
2022/08/06 22:14:56;;;;;;;0.10;0.10;;;;;;;10.23;100.00;102718.94;10456798;28;20536;-74
2022/08/06 22:19:57;;;;;;;0.10;0.10;;;;;;;10.17;100.00;102722.03;10454214;28;20039;-74
2022/08/06 22:24:57;;;;;;;0.00;0.00;;;;;;;10.11;100.00;102719.81;10452259;28;20032;-74
2022/08/06 22:35:16;;;;;;;0.10;0.10;;;;;;;10.01;100.00;102711.66;10453338;28;20025;-74
2022/08/06 22:40:17;;;;;;;0.10;0.10;;;;;;;9.80;100.00;102708.69;10453495;28;20025;-74
2022/08/06 22:45:17;;;;;;;0.00;0.00;;;;;;;9.73;100.00;102708.28;10470317;28;20020;-74
2022/08/06 22:50:18;;;;;;;0.10;0.10;;;;;;;9.65;100.00;102699.97;10494685;28;20269;-74
2022/08/06 22:55:19;;;;;;;0.00;0.00;;;;;;;9.60;100.00;102711.88;10494107;28;20262;-74
2022/08/06 23:00:20;;;;;;;0.10;0.10;;;;;;;9.61;100.00;102713.63;10494275;28;20016;-74
2022/08/06 23:05:21;;;;;;;0.10;0.10;;;;;;;9.58;100.00;102708.50;10494019;28;20024;-75
2022/08/06 23:10:21;;;;;;;0.00;0.00;;;;;;;9.51;100.00;102708.06;10492463;28;20487;-74
2022/08/06 23:15:23;;;;;;;0.00;0.00;;;;;;;9.47;100.00;102706.56;10457411;28;20065;-74
2022/08/06 23:20:23;;;;;;;0.00;0.00;;;;;;;9.50;100.00;102701.88;10450769;28;20037;-75
2022/08/06 23:25:23;;;;;;;0.00;0.00;;;;;;;9.52;100.00;102699.13;10450972;28;20021;-74